Language selection

My Weather Profile Weather Topics  | 

Atlantic - Labrador: Past 24 Hour Conditions

 

Mary's Harbour

10:30 PM NDT 18 June 2021
Disclaimer

This table is a summary of hourly weather conditions for the past 24 hours.
Please note that these observations might not always be representative of weather conditions over their associated marine area.

Date / Time
(NDT)
Wind(knots) Conditions Visibility(km) Pressure(kPa) Air tempC) Relative humidity(%) Dew pointC) Humidex
18 June 2021
22:30 SW 12 gust 21 Clear 16 100.7 15 72 10 *
21:30 SW 9 gust 17 Sunny 16 100.7 16 68 10 *
20:30 SSW 10 gust 17 Sunny 16 100.7 17 64 10 *
19:30 SW 17 gust 26 Sunny 16 100.7 19 56 10 *
18:30 SW 14 gust 28 Sunny 16 100.6 20 54 11 22
17:30 SSW 15 Sunny 16 100.6 22 46 10 24
16:30 SW 9 gust 19 Sunny 16 100.6 23 40 9 24
15:30 WSW 12 gust 19 Sunny 16 100.6 23 43 10 24
14:30 WSW 12 gust 22 Mostly Cloudy 16 100.6 22 47 10 24
13:30 SW 14 gust 20 Cloudy 16 100.5 21 47 9 22
12:30 WSW 11 gust 22 Mainly Sunny 16 100.5 21 44 8 *
11:30 WSW 10 gust 18 Partly Cloudy 16 100.6 20 51 9 *
10:30 WSW 10 Mainly Sunny 16 100.5 18 59 10 *
9:30 WSW 9 gust 16 Sunny 16 100.5 16 67 10 *
8:30 W 9 gust 15 Partly Cloudy 16 100.5 14 76 9 *
7:30 W 9 gust 16 Mainly Sunny 16 100.5 12 81 9 *
6:30 WSW 5 Partly Cloudy 16 100.5 10 88 8 *
5:30 WSW 6 Sunny 16 100.4 8 95 7 *
4:30 SW 7 Clear 16 100.4 8 92 7 *
3:30 SW 8 Partly Cloudy 16 100.3 9 91 8 *
2:30 SW 10 gust 15 Cloudy 16 100.4 10 90 8 *
1:30 SSW 9 Clear 16 100.4 9 92 7 *
0:30 WSW 8 Clear 16 100.4 9 89 8 *
17 June 2021
23:30 SW 8 gust 15 Cloudy 16 100.4 10 85 8 *
22:30 SSW 4 Mainly Clear 16 100.5 11 86 8 *

Zoom-in to make a selection

Map of Atlantic - Labrador marine weather areas Kangiqsualujjuaq Airport Cape Kakkiviak Cape Kiglapait Cartwright Airport CFB Goose Bay Hopedale Mary's Harbour Nain Airport Makkovik Airport Saglek Tukialik Bay
Legend:
buoy Buoy
land station Land Station

Atlantic - Labrador Area

Another Region

What we are doing

Date modified: